sensor_id;sensor_type;location;lat;lon;timestamp;temperature;humidity
46366;DHT22;32073;49.166;8.076;2022-07-06T00:00:45;23.10;37.10
46366;DHT22;32073;49.166;8.076;2022-07-06T00:04:46;23.10;37.20
46366;DHT22;32073;49.166;8.076;2022-07-06T00:08:47;23.00;37.30
46366;DHT22;32073;49.166;8.076;2022-07-06T00:12:47;23.00;37.50
46366;DHT22;32073;49.166;8.076;2022-07-06T00:16:48;22.90;37.60
46366;DHT22;32073;49.166;8.076;2022-07-06T00:20:49;22.90;37.70
46366;DHT22;32073;49.166;8.076;2022-07-06T00:24:49;22.80;37.90
46366;DHT22;32073;49.166;8.076;2022-07-06T00:28:50;22.80;38.20
46366;DHT22;32073;49.166;8.076;2022-07-06T00:32:51;22.70;38.20
46366;DHT22;32073;49.166;8.076;2022-07-06T00:36:51;22.60;38.30
46366;DHT22;32073;49.166;8.076;2022-07-06T00:40:52;22.60;38.70
46366;DHT22;32073;49.166;8.076;2022-07-06T00:44:53;22.50;38.80
46366;DHT22;32073;49.166;8.076;2022-07-06T00:48:54;22.40;38.70
46366;DHT22;32073;49.166;8.076;2022-07-06T00:53:03;22.40;38.90
46366;DHT22;32073;49.166;8.076;2022-07-06T00:57:06;22.40;39.30
46366;DHT22;32073;49.166;8.076;2022-07-06T01:01:06;22.30;39.40
46366;DHT22;32073;49.166;8.076;2022-07-06T01:05:09;22.20;39.60
46366;DHT22;32073;49.166;8.076;2022-07-06T01:09:11;22.10;40.00
46366;DHT22;32073;49.166;8.076;2022-07-06T01:13:12;22.10;40.40
46366;DHT22;32073;49.166;8.076;2022-07-06T01:17:13;22.00;40.60
46366;DHT22;32073;49.166;8.076;2022-07-06T01:21:15;21.90;41.00
46366;DHT22;32073;49.166;8.076;2022-07-06T01:25:16;21.80;41.60
46366;DHT22;32073;49.166;8.076;2022-07-06T01:29:17;21.70;41.40
46366;DHT22;32073;49.166;8.076;2022-07-06T01:33:18;21.60;41.90
46366;DHT22;32073;49.166;8.076;2022-07-06T01:37:19;21.50;41.90
46366;DHT22;32073;49.166;8.076;2022-07-06T01:41:20;21.50;42.10
46366;DHT22;32073;49.166;8.076;2022-07-06T01:45:21;21.40;42.00
46366;DHT22;32073;49.166;8.076;2022-07-06T01:49:22;21.30;42.20
46366;DHT22;32073;49.166;8.076;2022-07-06T01:53:22;21.30;42.50
46366;DHT22;32073;49.166;8.076;2022-07-06T01:57:23;21.30;42.60
46366;DHT22;32073;49.166;8.076;2022-07-06T02:01:24;21.20;42.60
46366;DHT22;32073;49.166;8.076;2022-07-06T02:05:25;21.10;42.50
46366;DHT22;32073;49.166;8.076;2022-07-06T02:09:25;21.10;42.80
46366;DHT22;32073;49.166;8.076;2022-07-06T02:13:26;21.10;42.80
46366;DHT22;32073;49.166;8.076;2022-07-06T02:17:27;21.10;43.10
46366;DHT22;32073;49.166;8.076;2022-07-06T02:21:28;21.00;43.10
46366;DHT22;32073;49.166;8.076;2022-07-06T02:25:29;21.00;43.20
46366;DHT22;32073;49.166;8.076;2022-07-06T02:29:31;20.90;43.50
46366;DHT22;32073;49.166;8.076;2022-07-06T02:33:31;20.90;43.50
46366;DHT22;32073;49.166;8.076;2022-07-06T02:37:32;20.80;43.60
46366;DHT22;32073;49.166;8.076;2022-07-06T02:41:33;20.80;43.70
46366;DHT22;32073;49.166;8.076;2022-07-06T02:45:35;20.70;43.60
46366;DHT22;32073;49.166;8.076;2022-07-06T02:49:35;20.70;43.80
46366;DHT22;32073;49.166;8.076;2022-07-06T02:53:36;20.70;44.30
46366;DHT22;32073;49.166;8.076;2022-07-06T02:57:37;20.60;44.70
46366;DHT22;32073;49.166;8.076;2022-07-06T03:01:37;20.50;44.10
46366;DHT22;32073;49.166;8.076;2022-07-06T03:05:45;20.50;44.10
46366;DHT22;32073;49.166;8.076;2022-07-06T03:09:47;20.50;44.10
46366;DHT22;32073;49.166;8.076;2022-07-06T03:13:47;20.50;44.20
46366;DHT22;32073;49.166;8.076;2022-07-06T03:17:49;20.50;44.20
46366;DHT22;32073;49.166;8.076;2022-07-06T03:21:50;20.60;44.20
46366;DHT22;32073;49.166;8.076;2022-07-06T03:25:50;20.50;44.30
46366;DHT22;32073;49.166;8.076;2022-07-06T03:29:51;20.50;44.30
46366;DHT22;32073;49.166;8.076;2022-07-06T03:33:52;20.60;44.40
46366;DHT22;32073;49.166;8.076;2022-07-06T03:37:53;20.50;44.30
46366;DHT22;32073;49.166;8.076;2022-07-06T03:41:54;20.50;44.50
46366;DHT22;32073;49.166;8.076;2022-07-06T03:45:54;20.50;44.50
46366;DHT22;32073;49.166;8.076;2022-07-06T03:49:56;20.50;44.60
46366;DHT22;32073;49.166;8.076;2022-07-06T03:53:56;20.50;44.60
46366;DHT22;32073;49.166;8.076;2022-07-06T03:57:57;20.50;44.80
46366;DHT22;32073;49.166;8.076;2022-07-06T04:12:30;20.50;44.80
46366;DHT22;32073;49.166;8.076;2022-07-06T04:16:30;20.50;44.90
46366;DHT22;32073;49.166;8.076;2022-07-06T04:20:31;20.50;45.00
46366;DHT22;32073;49.166;8.076;2022-07-06T04:24:32;20.50;45.00
46366;DHT22;32073;49.166;8.076;2022-07-06T04:28:32;20.60;45.10
46366;DHT22;32073;49.166;8.076;2022-07-06T04:32:34;20.70;45.10
46366;DHT22;32073;49.166;8.076;2022-07-06T04:36:35;20.80;45.10
46366;DHT22;32073;49.166;8.076;2022-07-06T04:40:36;20.80;45.10
46366;DHT22;32073;49.166;8.076;2022-07-06T04:44:36;20.80;45.10
46366;DHT22;32073;49.166;8.076;2022-07-06T04:48:37;20.90;45.10
46366;DHT22;32073;49.166;8.076;2022-07-06T04:52:39;20.90;45.00
46366;DHT22;32073;49.166;8.076;2022-07-06T04:56:40;21.00;45.10
46366;DHT22;32073;49.166;8.076;2022-07-06T05:00:40;21.00;45.00
46366;DHT22;32073;49.166;8.076;2022-07-06T05:04:41;21.10;45.00
46366;DHT22;32073;49.166;8.076;2022-07-06T05:08:42;21.10;45.60
46366;DHT22;32073;49.166;8.076;2022-07-06T05:12:43;21.40;46.40
46366;DHT22;32073;49.166;8.076;2022-07-06T05:16:43;21.80;46.20
46366;DHT22;32073;49.166;8.076;2022-07-06T05:20:44;22.10;45.40
46366;DHT22;32073;49.166;8.076;2022-07-06T05:24:45;22.40;45.30
46366;DHT22;32073;49.166;8.076;2022-07-06T05:28:45;22.70;45.40
46366;DHT22;32073;49.166;8.076;2022-07-06T05:32:46;23.00;44.90
46366;DHT22;32073;49.166;8.076;2022-07-06T05:36:47;23.40;44.60
46366;DHT22;32073;49.166;8.076;2022-07-06T05:40:47;23.70;44.50
46366;DHT22;32073;49.166;8.076;2022-07-06T05:44:48;24.10;43.70
46366;DHT22;32073;49.166;8.076;2022-07-06T05:48:48;24.40;43.60
46366;DHT22;32073;49.166;8.076;2022-07-06T05:53:08;24.70;43.80
46366;DHT22;32073;49.166;8.076;2022-07-06T05:57:08;25.00;43.30
46366;DHT22;32073;49.166;8.076;2022-07-06T06:01:09;25.30;42.50
46366;DHT22;32073;49.166;8.076;2022-07-06T06:05:10;25.40;42.10
46366;DHT22;32073;49.166;8.076;2022-07-06T06:09:11;25.50;41.40
46366;DHT22;32073;49.166;8.076;2022-07-06T06:13:14;25.60;41.30
46366;DHT22;32073;49.166;8.076;2022-07-06T06:17:15;25.60;40.50
46366;DHT22;32073;49.166;8.076;2022-07-06T06:21:16;25.30;40.20
46366;DHT22;32073;49.166;8.076;2022-07-06T06:25:20;25.10;39.80
46366;DHT22;32073;49.166;8.076;2022-07-06T06:29:31;24.90;39.80
46366;DHT22;32073;49.166;8.076;2022-07-06T06:33:31;24.50;39.80
46366;DHT22;32073;49.166;8.076;2022-07-06T06:37:33;24.20;40.00
46366;DHT22;32073;49.166;8.076;2022-07-06T06:41:34;23.90;40.30
46366;DHT22;32073;49.166;8.076;2022-07-06T06:45:35;23.60;40.60
46366;DHT22;32073;49.166;8.076;2022-07-06T06:49:36;23.40;40.80
46366;DHT22;32073;49.166;8.076;2022-07-06T06:53:37;23.30;41.00
46366;DHT22;32073;49.166;8.076;2022-07-06T06:57:37;23.20;41.10
46366;DHT22;32073;49.166;8.076;2022-07-06T07:01:38;23.00;41.10
46366;DHT22;32073;49.166;8.076;2022-07-06T07:05:39;22.80;41.40
46366;DHT22;32073;49.166;8.076;2022-07-06T07:09:39;22.80;41.60
46366;DHT22;32073;49.166;8.076;2022-07-06T07:13:40;22.70;41.80
46366;DHT22;32073;49.166;8.076;2022-07-06T07:17:41;22.60;42.00
46366;DHT22;32073;49.166;8.076;2022-07-06T07:21:42;22.70;42.20
46366;DHT22;32073;49.166;8.076;2022-07-06T07:25:42;22.80;42.30
46366;DHT22;32073;49.166;8.076;2022-07-06T07:29:43;22.90;42.30
46366;DHT22;32073;49.166;8.076;2022-07-06T07:33:44;22.90;42.10
46366;DHT22;32073;49.166;8.076;2022-07-06T07:37:44;22.90;42.10
46366;DHT22;32073;49.166;8.076;2022-07-06T07:41:45;23.00;42.20
46366;DHT22;32073;49.166;8.076;2022-07-06T07:45:46;23.00;42.00
46366;DHT22;32073;49.166;8.076;2022-07-06T07:49:47;23.10;42.10
46366;DHT22;32073;49.166;8.076;2022-07-06T07:53:48;23.20;42.10
46366;DHT22;32073;49.166;8.076;2022-07-06T07:57:49;23.30;42.00
46366;DHT22;32073;49.166;8.076;2022-07-06T08:01:49;23.30;41.90
46366;DHT22;32073;49.166;8.076;2022-07-06T08:05:50;23.40;42.00
46366;DHT22;32073;49.166;8.076;2022-07-06T08:09:51;23.50;41.90
46366;DHT22;32073;49.166;8.076;2022-07-06T08:13:52;23.60;42.00
46366;DHT22;32073;49.166;8.076;2022-07-06T08:17:52;23.70;41.70
46366;DHT22;32073;49.166;8.076;2022-07-06T08:21:53;23.70;41.50
46366;DHT22;32073;49.166;8.076;2022-07-06T08:25:54;23.80;41.60
46366;DHT22;32073;49.166;8.076;2022-07-06T08:29:55;23.90;41.60
46366;DHT22;32073;49.166;8.076;2022-07-06T08:33:55;24.00;41.70
46366;DHT22;32073;49.166;8.076;2022-07-06T08:37:57;24.00;41.60
46366;DHT22;32073;49.166;8.076;2022-07-06T08:41:58;24.10;41.40
46366;DHT22;32073;49.166;8.076;2022-07-06T08:46:01;24.20;41.30
46366;DHT22;32073;49.166;8.076;2022-07-06T08:50:03;24.30;41.30
46366;DHT22;32073;49.166;8.076;2022-07-06T08:54:05;24.30;41.00
46366;DHT22;32073;49.166;8.076;2022-07-06T08:58:07;24.40;41.00
46366;DHT22;32073;49.166;8.076;2022-07-06T09:02:10;24.60;41.10
46366;DHT22;32073;49.166;8.076;2022-07-06T09:06:16;24.60;40.90
46366;DHT22;32073;49.166;8.076;2022-07-06T09:10:21;24.70;40.70
46366;DHT22;32073;49.166;8.076;2022-07-06T09:14:22;24.90;40.50
46366;DHT22;32073;49.166;8.076;2022-07-06T09:18:23;24.90;40.50
46366;DHT22;32073;49.166;8.076;2022-07-06T09:22:28;25.00;40.70
46366;DHT22;32073;49.166;8.076;2022-07-06T09:26:31;25.10;40.40
46366;DHT22;32073;49.166;8.076;2022-07-06T09:30:32;25.30;40.50
46366;DHT22;32073;49.166;8.076;2022-07-06T09:34:46;25.40;40.10
46366;DHT22;32073;49.166;8.076;2022-07-06T09:38:47;25.60;40.00
46366;DHT22;32073;49.166;8.076;2022-07-06T09:42:47;25.70;40.00
46366;DHT22;32073;49.166;8.076;2022-07-06T09:46:49;25.80;40.00
46366;DHT22;32073;49.166;8.076;2022-07-06T09:50:53;26.00;39.90
46366;DHT22;32073;49.166;8.076;2022-07-06T09:54:54;26.10;39.40
46366;DHT22;32073;49.166;8.076;2022-07-06T09:58:55;26.20;39.20
46366;DHT22;32073;49.166;8.076;2022-07-06T10:02:56;26.20;39.00
46366;DHT22;32073;49.166;8.076;2022-07-06T10:06:58;26.20;38.70
46366;DHT22;32073;49.166;8.076;2022-07-06T10:11:00;26.20;38.80
46366;DHT22;32073;49.166;8.076;2022-07-06T10:15:01;26.30;38.90
46366;DHT22;32073;49.166;8.076;2022-07-06T10:19:05;26.30;38.40
46366;DHT22;32073;49.166;8.076;2022-07-06T10:23:08;26.30;38.30
46366;DHT22;32073;49.166;8.076;2022-07-06T10:27:10;26.30;38.50
46366;DHT22;32073;49.166;8.076;2022-07-06T10:31:14;26.40;38.30
46366;DHT22;32073;49.166;8.076;2022-07-06T10:35:18;26.40;38.30
46366;DHT22;32073;49.166;8.076;2022-07-06T10:39:38;26.40;38.20
46366;DHT22;32073;49.166;8.076;2022-07-06T10:43:58;26.50;38.20
46366;DHT22;32073;49.166;8.076;2022-07-06T10:52:16;26.60;38.00
46366;DHT22;32073;49.166;8.076;2022-07-06T10:56:17;26.70;38.10
46366;DHT22;32073;49.166;8.076;2022-07-06T11:00:18;26.80;37.50
46366;DHT22;32073;49.166;8.076;2022-07-06T11:04:19;26.80;37.20
46366;DHT22;32073;49.166;8.076;2022-07-06T11:12:59;26.80;37.20
46366;DHT22;32073;49.166;8.076;2022-07-06T11:17:03;26.80;36.70
46366;DHT22;32073;49.166;8.076;2022-07-06T11:25:22;27.00;36.80
46366;DHT22;32073;49.166;8.076;2022-07-06T11:29:24;27.00;36.10
46366;DHT22;32073;49.166;8.076;2022-07-06T11:33:30;27.00;36.00
46366;DHT22;32073;49.166;8.076;2022-07-06T11:37:31;26.80;35.70
46366;DHT22;32073;49.166;8.076;2022-07-06T11:41:32;26.80;36.50
46366;DHT22;32073;49.166;8.076;2022-07-06T11:45:33;26.70;36.60
46366;DHT22;32073;49.166;8.076;2022-07-06T11:49:37;26.70;36.10
46366;DHT22;32073;49.166;8.076;2022-07-06T11:53:46;26.70;35.50
46366;DHT22;32073;49.166;8.076;2022-07-06T11:57:47;26.80;34.90
46366;DHT22;32073;49.166;8.076;2022-07-06T12:01:49;26.80;35.20
46366;DHT22;32073;49.166;8.076;2022-07-06T12:05:50;26.80;34.90
46366;DHT22;32073;49.166;8.076;2022-07-06T12:09:50;26.80;34.60
46366;DHT22;32073;49.166;8.076;2022-07-06T12:13:59;26.80;34.80
46366;DHT22;32073;49.166;8.076;2022-07-06T12:18:03;26.90;34.80
46366;DHT22;32073;49.166;8.076;2022-07-06T12:22:05;26.90;34.80
46366;DHT22;32073;49.166;8.076;2022-07-06T12:26:08;27.00;34.90
46366;DHT22;32073;49.166;8.076;2022-07-06T12:30:10;27.10;34.70
46366;DHT22;32073;49.166;8.076;2022-07-06T12:34:22;27.20;34.50
46366;DHT22;32073;49.166;8.076;2022-07-06T12:38:25;27.20;34.10
46366;DHT22;32073;49.166;8.076;2022-07-06T12:42:27;27.30;34.10
46366;DHT22;32073;49.166;8.076;2022-07-06T12:46:31;27.30;33.90
46366;DHT22;32073;49.166;8.076;2022-07-06T12:50:37;27.30;33.40
46366;DHT22;32073;49.166;8.076;2022-07-06T12:59:00;27.20;32.00
46366;DHT22;32073;49.166;8.076;2022-07-06T13:03:01;27.20;32.50
46366;DHT22;32073;49.166;8.076;2022-07-06T13:07:03;27.20;32.60
46366;DHT22;32073;49.166;8.076;2022-07-06T13:11:04;27.10;32.10
46366;DHT22;32073;49.166;8.076;2022-07-06T13:15:06;27.00;32.30
46366;DHT22;32073;49.166;8.076;2022-07-06T13:19:08;27.10;32.60
46366;DHT22;32073;49.166;8.076;2022-07-06T13:23:09;27.10;32.60
46366;DHT22;32073;49.166;8.076;2022-07-06T13:27:10;27.30;32.00
46366;DHT22;32073;49.166;8.076;2022-07-06T13:31:12;27.30;31.90
46366;DHT22;32073;49.166;8.076;2022-07-06T13:35:12;27.30;32.00
46366;DHT22;32073;49.166;8.076;2022-07-06T13:39:13;27.50;31.90
46366;DHT22;32073;49.166;8.076;2022-07-06T13:43:14;27.60;31.90
46366;DHT22;32073;49.166;8.076;2022-07-06T13:47:14;27.70;31.80
46366;DHT22;32073;49.166;8.076;2022-07-06T13:51:15;27.80;31.70
46366;DHT22;32073;49.166;8.076;2022-07-06T13:55:16;27.90;31.60
46366;DHT22;32073;49.166;8.076;2022-07-06T13:59:16;27.80;31.70
46366;DHT22;32073;49.166;8.076;2022-07-06T14:03:17;28.10;31.30
46366;DHT22;32073;49.166;8.076;2022-07-06T14:07:18;28.20;31.40
46366;DHT22;32073;49.166;8.076;2022-07-06T14:11:19;28.20;31.30
46366;DHT22;32073;49.166;8.076;2022-07-06T14:15:20;28.20;30.80
46366;DHT22;32073;49.166;8.076;2022-07-06T14:19:21;28.20;30.50
46366;DHT22;32073;49.166;8.076;2022-07-06T14:23:22;28.10;30.90
46366;DHT22;32073;49.166;8.076;2022-07-06T14:27:24;28.10;31.00
46366;DHT22;32073;49.166;8.076;2022-07-06T14:31:24;28.10;30.50
46366;DHT22;32073;49.166;8.076;2022-07-06T14:35:25;28.10;30.80
46366;DHT22;32073;49.166;8.076;2022-07-06T14:39:26;28.10;30.60
46366;DHT22;32073;49.166;8.076;2022-07-06T14:43:26;28.20;30.40
46366;DHT22;32073;49.166;8.076;2022-07-06T14:47:27;28.20;30.60
46366;DHT22;32073;49.166;8.076;2022-07-06T14:51:28;28.30;30.00
46366;DHT22;32073;49.166;8.076;2022-07-06T14:55:28;28.20;30.10
46366;DHT22;32073;49.166;8.076;2022-07-06T14:59:29;28.20;30.30
46366;DHT22;32073;49.166;8.076;2022-07-06T15:03:33;28.20;30.30
46366;DHT22;32073;49.166;8.076;2022-07-06T15:07:33;28.20;30.30
46366;DHT22;32073;49.166;8.076;2022-07-06T15:11:34;28.20;30.10
46366;DHT22;32073;49.166;8.076;2022-07-06T15:15:35;28.10;29.90
46366;DHT22;32073;49.166;8.076;2022-07-06T15:19:36;28.10;30.40
46366;DHT22;32073;49.166;8.076;2022-07-06T15:23:37;28.00;29.90
46366;DHT22;32073;49.166;8.076;2022-07-06T15:27:38;27.90;29.80
46366;DHT22;32073;49.166;8.076;2022-07-06T15:31:39;27.80;29.80
46366;DHT22;32073;49.166;8.076;2022-07-06T15:35:39;27.70;30.00
46366;DHT22;32073;49.166;8.076;2022-07-06T15:39:40;27.90;30.10
46366;DHT22;32073;49.166;8.076;2022-07-06T15:43:41;27.80;30.10
46366;DHT22;32073;49.166;8.076;2022-07-06T15:47:41;27.80;30.00
46366;DHT22;32073;49.166;8.076;2022-07-06T15:51:42;27.80;30.00
46366;DHT22;32073;49.166;8.076;2022-07-06T15:55:43;27.90;30.00
46366;DHT22;32073;49.166;8.076;2022-07-06T15:59:44;27.90;30.00
46366;DHT22;32073;49.166;8.076;2022-07-06T16:03:45;27.90;30.00
46366;DHT22;32073;49.166;8.076;2022-07-06T16:07:45;27.90;29.80
46366;DHT22;32073;49.166;8.076;2022-07-06T16:11:46;28.00;30.00
46366;DHT22;32073;49.166;8.076;2022-07-06T16:15:47;28.00;29.90
46366;DHT22;32073;49.166;8.076;2022-07-06T16:19:48;28.00;29.90
46366;DHT22;32073;49.166;8.076;2022-07-06T16:23:49;28.00;30.00
46366;DHT22;32073;49.166;8.076;2022-07-06T16:27:50;28.00;30.10
46366;DHT22;32073;49.166;8.076;2022-07-06T16:31:52;28.00;30.10
46366;DHT22;32073;49.166;8.076;2022-07-06T16:35:52;27.90;30.00
46366;DHT22;32073;49.166;8.076;2022-07-06T16:39:53;27.80;30.00
46366;DHT22;32073;49.166;8.076;2022-07-06T16:43:54;27.60;30.00
46366;DHT22;32073;49.166;8.076;2022-07-06T16:47:55;27.40;30.00
46366;DHT22;32073;49.166;8.076;2022-07-06T16:51:55;27.30;30.20
46366;DHT22;32073;49.166;8.076;2022-07-06T16:55:56;27.10;30.40
46366;DHT22;32073;49.166;8.076;2022-07-06T16:59:57;26.90;30.30
46366;DHT22;32073;49.166;8.076;2022-07-06T17:03:58;26.80;30.70
46366;DHT22;32073;49.166;8.076;2022-07-06T17:07:59;26.60;30.70
46366;DHT22;32073;49.166;8.076;2022-07-06T17:11:59;26.50;30.70
46366;DHT22;32073;49.166;8.076;2022-07-06T17:16:00;26.40;30.70
46366;DHT22;32073;49.166;8.076;2022-07-06T17:20:01;26.30;30.80
46366;DHT22;32073;49.166;8.076;2022-07-06T17:24:01;26.20;30.80
46366;DHT22;32073;49.166;8.076;2022-07-06T17:28:02;26.10;31.00
46366;DHT22;32073;49.166;8.076;2022-07-06T17:32:04;25.90;30.90
46366;DHT22;32073;49.166;8.076;2022-07-06T17:36:05;25.80;31.10
46366;DHT22;32073;49.166;8.076;2022-07-06T17:40:07;25.70;31.30
46366;DHT22;32073;49.166;8.076;2022-07-06T17:44:08;25.50;31.30
46366;DHT22;32073;49.166;8.076;2022-07-06T17:48:09;25.50;31.60
46366;DHT22;32073;49.166;8.076;2022-07-06T17:52:09;25.50;31.50
46366;DHT22;32073;49.166;8.076;2022-07-06T17:56:14;25.40;31.40
46366;DHT22;32073;49.166;8.076;2022-07-06T18:00:17;25.40;31.30
46366;DHT22;32073;49.166;8.076;2022-07-06T18:04:17;25.40;31.40
46366;DHT22;32073;49.166;8.076;2022-07-06T18:08:18;25.40;31.40
46366;DHT22;32073;49.166;8.076;2022-07-06T18:12:19;25.40;31.60
46366;DHT22;32073;49.166;8.076;2022-07-06T18:16:19;25.40;31.60
46366;DHT22;32073;49.166;8.076;2022-07-06T18:20:20;25.50;31.60
46366;DHT22;32073;49.166;8.076;2022-07-06T18:24:21;25.50;31.60
46366;DHT22;32073;49.166;8.076;2022-07-06T18:28:22;25.40;31.50
46366;DHT22;32073;49.166;8.076;2022-07-06T18:32:23;25.40;31.60
46366;DHT22;32073;49.166;8.076;2022-07-06T18:36:24;25.40;31.60
46366;DHT22;32073;49.166;8.076;2022-07-06T18:40:31;25.40;31.60
46366;DHT22;32073;49.166;8.076;2022-07-06T18:44:32;25.30;31.50
46366;DHT22;32073;49.166;8.076;2022-07-06T18:48:33;25.30;31.60
46366;DHT22;32073;49.166;8.076;2022-07-06T18:52:34;25.20;32.20
46366;DHT22;32073;49.166;8.076;2022-07-06T18:56:34;25.20;31.70
46366;DHT22;32073;49.166;8.076;2022-07-06T19:00:36;25.10;31.70
46366;DHT22;32073;49.166;8.076;2022-07-06T19:04:37;25.00;31.80
46366;DHT22;32073;49.166;8.076;2022-07-06T19:08:38;25.00;31.90
46366;DHT22;32073;49.166;8.076;2022-07-06T19:12:39;24.90;32.00
46366;DHT22;32073;49.166;8.076;2022-07-06T19:16:40;25.00;32.00
46366;DHT22;32073;49.166;8.076;2022-07-06T19:20:41;24.90;32.00
46366;DHT22;32073;49.166;8.076;2022-07-06T19:24:42;24.90;32.00
46366;DHT22;32073;49.166;8.076;2022-07-06T19:28:43;24.80;32.10
46366;DHT22;32073;49.166;8.076;2022-07-06T19:32:46;24.60;32.10
46366;DHT22;32073;49.166;8.076;2022-07-06T19:36:47;24.60;32.30
46366;DHT22;32073;49.166;8.076;2022-07-06T19:40:48;24.60;32.30
46366;DHT22;32073;49.166;8.076;2022-07-06T19:44:49;24.50;32.70
46366;DHT22;32073;49.166;8.076;2022-07-06T19:48:50;24.40;33.10
46366;DHT22;32073;49.166;8.076;2022-07-06T19:52:50;24.50;33.50
46366;DHT22;32073;49.166;8.076;2022-07-06T19:56:51;24.30;33.70
46366;DHT22;32073;49.166;8.076;2022-07-06T20:00:53;24.30;33.80
46366;DHT22;32073;49.166;8.076;2022-07-06T20:04:57;24.10;33.80
46366;DHT22;32073;49.166;8.076;2022-07-06T20:08:59;24.10;33.90
46366;DHT22;32073;49.166;8.076;2022-07-06T20:13:01;23.90;33.90
46366;DHT22;32073;49.166;8.076;2022-07-06T20:17:04;23.80;33.90
46366;DHT22;32073;49.166;8.076;2022-07-06T20:21:05;23.70;34.20
46366;DHT22;32073;49.166;8.076;2022-07-06T20:25:10;23.60;34.20
46366;DHT22;32073;49.166;8.076;2022-07-06T20:29:14;23.50;34.20
46366;DHT22;32073;49.166;8.076;2022-07-06T20:33:15;23.40;34.40
46366;DHT22;32073;49.166;8.076;2022-07-06T20:37:16;23.30;34.70
46366;DHT22;32073;49.166;8.076;2022-07-06T20:41:17;23.20;34.70
46366;DHT22;32073;49.166;8.076;2022-07-06T20:45:21;23.00;34.70
46366;DHT22;32073;49.166;8.076;2022-07-06T20:49:26;23.10;34.90
46366;DHT22;32073;49.166;8.076;2022-07-06T20:53:26;22.90;35.10
46366;DHT22;32073;49.166;8.076;2022-07-06T20:57:27;22.80;35.10
46366;DHT22;32073;49.166;8.076;2022-07-06T21:01:28;22.80;35.20
46366;DHT22;32073;49.166;8.076;2022-07-06T21:05:29;22.60;35.20
46366;DHT22;32073;49.166;8.076;2022-07-06T21:09:31;22.50;35.40
46366;DHT22;32073;49.166;8.076;2022-07-06T21:13:32;22.50;35.50
46366;DHT22;32073;49.166;8.076;2022-07-06T21:17:33;22.40;35.60
46366;DHT22;32073;49.166;8.076;2022-07-06T21:21:34;22.30;35.60
46366;DHT22;32073;49.166;8.076;2022-07-06T21:25:35;22.20;35.80
46366;DHT22;32073;49.166;8.076;2022-07-06T21:29:36;22.20;35.90
46366;DHT22;32073;49.166;8.076;2022-07-06T21:33:37;22.20;36.00
46366;DHT22;32073;49.166;8.076;2022-07-06T21:37:41;22.00;36.10
46366;DHT22;32073;49.166;8.076;2022-07-06T21:41:42;22.10;36.50
46366;DHT22;32073;49.166;8.076;2022-07-06T21:45:43;21.90;36.30
46366;DHT22;32073;49.166;8.076;2022-07-06T21:49:43;21.90;36.40
46366;DHT22;32073;49.166;8.076;2022-07-06T21:53:44;21.90;36.50
46366;DHT22;32073;49.166;8.076;2022-07-06T21:57:45;21.80;36.50
46366;DHT22;32073;49.166;8.076;2022-07-06T22:01:46;21.70;36.50
46366;DHT22;32073;49.166;8.076;2022-07-06T22:05:47;21.70;36.60
46366;DHT22;32073;49.166;8.076;2022-07-06T22:09:47;21.70;36.60
46366;DHT22;32073;49.166;8.076;2022-07-06T22:13:48;21.60;36.80
46366;DHT22;32073;49.166;8.076;2022-07-06T22:17:49;21.50;36.80
46366;DHT22;32073;49.166;8.076;2022-07-06T22:21:51;21.50;37.00
46366;DHT22;32073;49.166;8.076;2022-07-06T22:25:52;21.50;37.10
46366;DHT22;32073;49.166;8.076;2022-07-06T22:29:53;21.40;37.20
46366;DHT22;32073;49.166;8.076;2022-07-06T22:33:53;21.40;37.50
46366;DHT22;32073;49.166;8.076;2022-07-06T22:37:54;21.30;37.60
46366;DHT22;32073;49.166;8.076;2022-07-06T22:41:55;21.30;37.70
46366;DHT22;32073;49.166;8.076;2022-07-06T22:45:56;21.20;38.00
46366;DHT22;32073;49.166;8.076;2022-07-06T22:49:57;21.30;38.30
46366;DHT22;32073;49.166;8.076;2022-07-06T22:53:58;21.20;38.30
46366;DHT22;32073;49.166;8.076;2022-07-06T22:57:58;21.20;38.50
46366;DHT22;32073;49.166;8.076;2022-07-06T23:01:59;21.20;38.60
46366;DHT22;32073;49.166;8.076;2022-07-06T23:06:00;21.20;38.60
46366;DHT22;32073;49.166;8.076;2022-07-06T23:10:00;21.10;38.70
46366;DHT22;32073;49.166;8.076;2022-07-06T23:14:01;21.10;38.80
46366;DHT22;32073;49.166;8.076;2022-07-06T23:18:02;21.10;39.00
46366;DHT22;32073;49.166;8.076;2022-07-06T23:22:04;21.10;39.10
46366;DHT22;32073;49.166;8.076;2022-07-06T23:26:05;21.10;39.40
46366;DHT22;32073;49.166;8.076;2022-07-06T23:30:06;21.10;39.40
46366;DHT22;32073;49.166;8.076;2022-07-06T23:34:07;21.10;39.40
46366;DHT22;32073;49.166;8.076;2022-07-06T23:38:07;21.10;39.50
46366;DHT22;32073;49.166;8.076;2022-07-06T23:42:08;21.10;39.50
46366;DHT22;32073;49.166;8.076;2022-07-06T23:46:09;21.20;39.70
46366;DHT22;32073;49.166;8.076;2022-07-06T23:50:10;21.20;39.60
46366;DHT22;32073;49.166;8.076;2022-07-06T23:54:11;21.20;39.70
46366;DHT22;32073;49.166;8.076;2022-07-06T23:58:12;21.20;39.80
